• Join FlightAware (Why Join?)
  • Login
  • US Flag 
11:28PM EDT


 

Airport Tracker/Info


-or-


 

Live Flight TrackerFlight Track Log ✈ FDX916 ✈ 18-Apr-2013 ✈ KSAT - KELP

Flight Track Log - Related Links

Times and Time Zones

All times are in EDT time to prevent confusion due to time zone crossing. See the FDX916 flight status page for this flight to view local times or setup timezone preferences in your user account.

Time Position Orientation Groundspeed Altitude Reporting Facility
EDT Latitude Longitude Course Direction KTS MPH feet Rate Location/Type
08:27PM 29.9070 -98.8300 300° West 430 495 18,800  Level FlightAware
08:28PM 29.9611 -98.9056 300° West  Level FlightAware Approximate
08:28PM 29.9570 -98.9000 310° West 435 501 20,900  Level FlightAware
08:29PM 30.0160 -98.9840 309° West 445 512 22,900 1,440 Climbing FlightAware
08:29PM 30.0650 -99.0540 309° West 445 512 23,000 60 Climbing FlightAware
08:30PM 30.0914 -99.0907 310° West 447 514 23,000  Level FlightAware ADS-B
08:31PM 30.1760 -99.2150 308° West 446 513 23,000 600 Level FlightAware
08:32PM 30.2330 -99.3000 308° West 445 512 24,200 1,740 Climbing FlightAware
08:32PM 30.2690 -99.3810 297° West 440 506 25,500 2,580 Climbing FlightAware
08:33PM 30.2890 -99.4740 284° West 430 495 27,700 4,080 Climbing FlightAware
08:34PM 30.3100 -99.5710 284° West 391 450 31,300 4,620 Climbing FlightAware
08:34PM 30.3260 -99.6480 284° West 358 412 34,300 2,760 Climbing FlightAware
08:35PM 30.3410 -99.7240 283° West 377 434 35,000 900 Climbing FlightAware
08:36PM 30.3630 -99.8140 286° West 401 461 35,600 660 Climbing FlightAware
08:36PM 30.3840 -99.8960 287° West 400 460 36,000 240 Climbing FlightAware
08:37PM 30.4080 -99.9900 287° West 392 451 36,000  Level FlightAware
08:38PM 30.4290 -100.0700 287° West 391 450 36,000  Level FlightAware
08:39PM 30.4490 -100.1510 286° West 389 448 36,000  Level FlightAware
08:39PM 30.4710 -100.2380 286° West 387 445 36,000  Level FlightAware
08:40PM 30.4910 -100.3180 286° West 383 441 36,000  Level FlightAware
08:41PM 30.5140 -100.4080 287° West 382 440 36,000  Level FlightAware
08:41PM 30.5340 -100.4870 286° West 378 435 36,000  Level FlightAware
08:42PM 30.5520 -100.5640 285° West 371 427 36,000  Level FlightAware
08:43PM 30.5740 -100.6480 287° West 371 427 36,000  Level FlightAware
08:43PM 30.5920 -100.7230 286° West 371 427 36,000  Level FlightAware
08:44PM 30.6120 -100.8010 287° West 369 425 36,000  Level FlightAware
08:45PM 30.6330 -100.8890 286° West 368 423 36,000  Level FlightAware
08:46PM 30.6520 -100.9650 286° West 365 420 36,000  Level FlightAware
08:46PM 30.6720 -101.0460 286° West 364 419 36,000  Level FlightAware
08:47PM 30.6940 -101.1360 286° West 364 419 36,000  Level FlightAware
08:48PM 30.7120 -101.2100 286° West 364 419 36,000  Level FlightAware
08:48PM 30.7320 -101.2930 286° West 368 423 36,000  Level FlightAware
08:49PM 30.7500 -101.3700 285° West 372 428 36,000  Level FlightAware
08:50PM 30.7720 -101.4570 286° West 376 433 36,000 60 Level FlightAware
08:51PM 30.7900 -101.5360 285° West 379 436 36,100 60 Climbing FlightAware
08:51PM 30.8100 -101.6150 286° West 382 440 36,100  Level FlightAware
08:52PM 30.8310 -101.7060 285° West 382 440 36,100 -120 Level FlightAware
08:53PM 30.8500 -101.7850 286° West 379 436 36,000 -120 Descending FlightAware
08:53PM 30.8710 -101.8710 286° West 375 432 36,000  Level FlightAware
08:54PM 30.8900 -101.9500 286° West 373 429 36,000  Level FlightAware
08:55PM 30.9080 -102.0270 285° West 370 426 36,000  Level FlightAware
08:55PM 30.9280 -102.1100 286° West 369 425 36,000  Level FlightAware
08:56PM 30.9460 -102.1890 285° West 372 428 36,000  Level FlightAware
08:57PM 30.9670 -102.2780 285° West 372 428 36,000  Level FlightAware
08:58PM 30.9850 -102.3550 285° West 371 427 36,000 60 Level FlightAware
08:58PM 31.0030 -102.4320 285° West 372 428 36,100  Climbing FlightAware
08:59PM 31.0200 -102.5060 285° West 371 427 36,000 -120 Descending FlightAware
09:00PM 31.0410 -102.5950 285° West 372 428 36,000 60 Level FlightAware
09:00PM 31.0570 -102.6650 285° West 371 427 36,100 60 Climbing FlightAware
09:01PM 31.0730 -102.7390 284° West 371 427 36,100 -120 Level FlightAware
09:02PM 31.0950 -102.8320 285° West 371 427 36,000 -120 Descending FlightAware
09:02PM 31.1110 -102.8980 286° West 371 427 36,000  Level FlightAware
09:03PM 31.1260 -102.9640 285° West 371 427 36,000  Level FlightAware
09:04PM 31.1410 -103.0290 285° West 371 427 36,000  Level FlightAware
09:05PM 31.1600 -103.1120 285° West 371 427 36,000  Level FlightAware
09:05PM 31.1750 -103.1780 285° West 371 427 36,000  Level FlightAware
09:06PM 31.1900 -103.2440 285° West 371 427 36,000  Level FlightAware
09:07PM 31.2050 -103.3100 285° West 371 427 36,000  Level FlightAware
09:07PM 31.2200 -103.3750 285° West 371 427 36,000  Level FlightAware
09:08PM 31.2390 -103.4580 285° West 371 427 36,000  Level FlightAware
09:09PM 31.2540 -103.5240 285° West 371 427 36,000  Level FlightAware
09:09PM 31.2690 -103.5900 285° West 371 427 36,000  Level FlightAware
09:10PM 31.2840 -103.6560 285° West 371 427 36,000  Level FlightAware
09:11PM 31.2990 -103.7220 285° West 371 427 36,000  Level FlightAware
09:11PM 31.3422 -103.9372 285° West 390 449 36,000 -120 Level Albuquerque Center
09:12PM 31.3675 -104.0578 284° West 387 445 35,900 -60 Descending Albuquerque Center
09:13PM 31.4028 -104.2031 286° West 387 445 35,900  Level Albuquerque Center
09:14PM 31.4278 -104.3217 284° West 384 442 35,900  Level Albuquerque Center
09:15PM 31.4525 -104.4392 284° West 379 436 35,900  Level Albuquerque Center
09:16PM 31.4650 -104.5564 277° West 372 428 36,000  Climbing Albuquerque Center
09:17PM 31.4767 -104.6767 277° West 372 428 36,000 -540 Level Albuquerque Center
09:18PM 31.4897 -104.7986 277° West 375 432 35,000 -2,100 Descending Albuquerque Center
09:19PM 31.5036 -104.9372 277° West 368 423 31,700 -2,760 Descending Albuquerque Center
09:20PM 31.5156 -105.0547 277° West 367 422 29,400 -2,340 Descending Albuquerque Center
09:21PM 31.5267 -105.1708 276° West 364 419 27,000 -2,400 Descending Albuquerque Center
09:22PM 31.5381 -105.2853 277° West 360 414 24,500 -2,700 Descending Albuquerque Center
09:23PM 31.5481 -105.4006 276° West 351 404 21,800 -2,880 Descending Albuquerque Center
09:24PM 31.5569 -105.4708 278° West 345 397 20,100 -2,580 Descending Albuquerque Center
09:25PM 31.5603 -105.5119 275° West 350 403 18,900 -2,760 Descending Albuquerque Center
09:25PM 31.5656 -105.5833 275° West 349 402 17,300 -2,640 Descending Albuquerque Center
09:26PM 31.5714 -105.6239 280° West 349 402 16,300 -2,940 Descending Albuquerque Center
09:26PM 31.5789 -105.7122 276° West 345 397 14,100 -3,240 Descending Albuquerque Center
09:27PM 31.5833 -105.7572 277° West 345 397 13,000 -2,400 Descending Albuquerque Center
09:27PM 31.5989 -105.8194 286° West 337 388 11,700 -1,800 Descending Albuquerque Center
09:28PM 31.6156 -105.8572 297° West 332 382 11,200 -1,020 Descending Albuquerque Center
09:28PM 31.6372 -105.9097 296° West 302 348 10,700 -1,020 Descending Albuquerque Center
09:29PM 31.6514 -105.9431 297° West 296 341 10,200 -1,200 Descending Albuquerque Center
09:29PM 31.6714 -105.9908 296° West 270 311 9,500 -1,620 Descending Albuquerque Center
09:30PM 31.6850 -106.0236 296° West 276 318 8,600 -1,500 Descending Albuquerque Center
09:30PM 31.7056 -106.0722 296° West 269 310 8,000 -900 Descending Albuquerque Center
09:31PM 31.7186 -106.1014 298° West 267 307 7,700 -600 Descending Albuquerque Center
09:31PM 31.7347 -106.1372 298° West 250 288 7,500 -600 Descending Albuquerque Center
09:32PM 31.7464 -106.1700 293° West 236 272 7,100 -900 Descending Albuquerque Center
09:32PM 31.7619 -106.2056 297° West 227 261 6,600 -1,020 Descending Albuquerque Center
09:33PM 31.7753 -106.2367 297° West 230 265 6,100 -900 Descending Albuquerque Center
09:33PM 31.7886 -106.2689 296° West 213 245 5,700 -1,200 Descending Albuquerque Center
09:34PM 31.7972 -106.3050 286° West 178 205 4,900 -1,140 Descending Albuquerque Center
09:34PM 31.7981 -106.3214 273° West 155 178 4,600 -840 Descending Albuquerque Center
09:35PM 31.8011 -106.3550 276° West 149 171 4,100 -780 Descending Albuquerque Center
09:37PM 31.8000 -106.3667 291° West  Level FlightAware Approximate
09:44PM 31.8072 -106.3764 291° West  Level Estimated
09:45PM 31.8072 -106.3764 291° West  Level Estimated
09:46PM 31.8072 -106.3764 291° West  Level Estimated
09:47PM 31.8072 -106.3764 291° West  Level Estimated